createdAt,value
2022-11-15T00:01:19.157Z,31.52
2022-11-15T00:03:47.357Z,31.65
2022-11-15T00:06:14.934Z,31.50
2022-11-15T00:08:43.592Z,34.47
2022-11-15T00:11:13.415Z,32.47
2022-11-15T00:13:41.725Z,32.50
2022-11-15T00:16:10.145Z,33.25
2022-11-15T00:18:38.421Z,33.70
2022-11-15T00:21:17.620Z,34.95
2022-11-15T00:23:44.855Z,36.03
2022-11-15T00:26:15.045Z,34.13
2022-11-15T00:28:43.242Z,35.90
2022-11-15T00:31:15.133Z,34.70
2022-11-15T00:33:45.438Z,35.25
2022-11-15T00:36:13.085Z,37.38
2022-11-15T00:38:42.166Z,37.72
2022-11-15T00:41:10.294Z,37.55
2022-11-15T00:43:38.080Z,37.63
2022-11-15T00:46:05.440Z,39.65
2022-11-15T00:48:33.066Z,39.53
2022-11-15T00:51:00.591Z,38.60
2022-11-15T00:53:28.145Z,38.22
2022-11-15T00:55:55.500Z,38.30
2022-11-15T00:58:22.692Z,39.70
2022-11-15T01:00:49.873Z,37.88
2022-11-15T01:03:17.003Z,40.20
2022-11-15T01:05:44.238Z,38.95
2022-11-15T01:08:17.300Z,38.05
2022-11-15T01:10:44.481Z,39.38
2022-11-15T01:13:11.603Z,37.58
2022-11-15T01:15:42.404Z,37.72
2022-11-15T01:18:10.430Z,37.50
2022-11-15T01:20:44.075Z,36.53
2022-11-15T01:23:11.641Z,37.80
2022-11-15T01:25:38.820Z,35.45
2022-11-15T01:28:05.875Z,36.50
2022-11-15T01:30:32.971Z,37.30
2022-11-15T01:33:00.103Z,34.10
2022-11-15T01:35:27.123Z,34.10
2022-11-15T01:37:54.167Z,34.15
2022-11-15T01:40:21.236Z,30.70
2022-11-15T01:42:48.322Z,35.15
2022-11-15T01:45:16.717Z,32.65
2022-11-15T01:48:01.906Z,33.22
2022-11-15T01:50:33.352Z,35.08
2022-11-15T01:53:01.035Z,36.30
2022-11-15T01:55:29.571Z,34.83
2022-11-15T01:58:02.931Z,34.63
2022-11-15T02:00:31.519Z,35.25
2022-11-15T02:02:58.946Z,35.67
2022-11-15T02:05:26.311Z,34.20
2022-11-15T02:07:53.761Z,33.95
2022-11-15T02:10:24.402Z,34.45
2022-11-15T02:12:53.207Z,33.08
2022-11-15T02:15:37.891Z,32.55
2022-11-15T02:18:24.894Z,33.28
2022-11-15T02:21:21.102Z,31.55
2022-11-15T02:24:39.632Z,32.15
2022-11-15T02:27:43.049Z,31.13
2022-11-15T02:30:39.156Z,30.38
2022-11-15T02:33:55.107Z,31.15
2022-11-15T02:36:54.601Z,29.40
2022-11-15T02:39:52.462Z,29.00
2022-11-15T02:42:48.500Z,30.48
2022-11-15T02:45:27.085Z,28.55
2022-11-15T02:47:57.656Z,33.63
2022-11-15T02:50:29.318Z,32.80
2022-11-15T02:52:57.040Z,30.40
2022-11-15T02:55:33.945Z,31.17
2022-11-15T02:58:22.219Z,34.35
2022-11-15T03:01:05.731Z,35.50
2022-11-15T03:03:57.160Z,35.25
2022-11-15T03:06:51.214Z,33.35
2022-11-15T03:09:33.004Z,33.95
2022-11-15T03:13:07.252Z,34.55
2022-11-15T03:15:44.307Z,35.28
2022-11-15T03:18:49.097Z,35.92
2022-11-15T03:21:19.918Z,39.15
2022-11-15T03:23:49.621Z,36.15
2022-11-15T03:26:19.708Z,35.10
2022-11-15T03:29:17.361Z,39.70
2022-11-15T03:31:51.713Z,36.92
2022-11-15T03:34:30.912Z,35.70
2022-11-15T03:36:58.241Z,37.50
2022-11-15T03:39:27.265Z,36.80
2022-11-15T03:42:09.123Z,37.15
2022-11-15T03:45:03.247Z,36.03
2022-11-15T03:47:39.782Z,36.45
2022-11-15T03:50:18.058Z,35.42
2022-11-15T03:52:48.846Z,36.25
2022-11-15T03:55:21.642Z,34.22
2022-11-15T03:57:54.366Z,35.60
2022-11-15T04:00:22.583Z,35.63
2022-11-15T04:02:49.625Z,35.55
2022-11-15T04:05:16.759Z,34.85
2022-11-15T04:07:43.780Z,34.92
2022-11-15T04:10:12.967Z,36.55
2022-11-15T04:12:44.386Z,34.17
2022-11-15T04:15:20.859Z,33.78
2022-11-15T04:17:48.999Z,36.40
2022-11-15T04:20:41.485Z,37.10
2022-11-15T04:23:34.826Z,33.97
2022-11-15T04:26:12.028Z,34.25
2022-11-15T04:29:00.776Z,41.45
2022-11-15T04:31:28.484Z,37.20
2022-11-15T04:33:56.438Z,32.28
2022-11-15T04:36:42.840Z,33.30
2022-11-15T04:39:09.932Z,33.22
2022-11-15T04:41:37.071Z,34.00
2022-11-15T04:44:04.208Z,33.83
2022-11-15T04:46:31.278Z,33.97
2022-11-15T04:48:59.401Z,32.67
2022-11-15T04:51:27.614Z,33.75
2022-11-15T04:53:54.640Z,35.83
2022-11-15T04:56:21.680Z,33.42
2022-11-15T04:58:51.662Z,35.50
2022-11-15T05:01:19.290Z,33.20
2022-11-15T05:04:04.826Z,34.67
2022-11-15T05:06:32.401Z,34.60
2022-11-15T05:08:59.806Z,34.88
2022-11-15T05:11:28.260Z,34.90
2022-11-15T05:13:56.134Z,34.08
2022-11-15T05:16:23.342Z,35.38
2022-11-15T05:18:55.188Z,32.58
2022-11-15T05:21:22.723Z,33.55
2022-11-15T05:23:49.791Z,33.90
2022-11-15T05:26:19.129Z,29.60
2022-11-15T05:28:46.340Z,31.42
2022-11-15T05:31:16.661Z,30.90
2022-11-15T05:33:45.427Z,34.10
2022-11-15T05:36:28.908Z,33.35
2022-11-15T05:38:56.198Z,32.10
2022-11-15T05:41:36.644Z,32.63
2022-11-15T05:44:07.321Z,32.50
2022-11-15T05:46:35.319Z,33.83
2022-11-15T05:49:02.727Z,32.45
2022-11-15T05:51:30.822Z,34.15
2022-11-15T05:53:59.644Z,33.60
2022-11-15T05:56:27.066Z,31.98
2022-11-15T05:58:59.858Z,34.38
2022-11-15T06:01:28.695Z,33.70
2022-11-15T06:03:55.865Z,33.92
2022-11-15T06:06:23.004Z,34.42
2022-11-15T06:08:50.098Z,34.17
2022-11-15T06:11:17.252Z,34.03
2022-11-15T06:13:44.302Z,34.42
2022-11-15T06:16:11.558Z,30.70
2022-11-15T06:18:39.315Z,31.55
2022-11-15T06:21:07.221Z,33.88
2022-11-15T06:23:36.211Z,31.70
2022-11-15T06:26:04.282Z,32.55
2022-11-15T06:28:32.963Z,30.17
2022-11-15T06:31:09.193Z,34.22
2022-11-15T06:33:36.518Z,32.90
2022-11-15T06:36:16.129Z,33.08
2022-11-15T06:38:47.596Z,32.13
2022-11-15T06:41:15.839Z,32.03
2022-11-15T06:43:43.321Z,33.78
2022-11-15T06:46:11.115Z,31.83
2022-11-15T06:48:38.435Z,32.10
2022-11-15T06:51:06.465Z,33.83
2022-11-15T06:53:34.471Z,33.45
2022-11-15T06:56:04.598Z,33.80
2022-11-15T06:58:32.345Z,32.13
2022-11-15T07:01:09.098Z,32.10
2022-11-15T07:03:38.449Z,31.83
2022-11-15T07:06:07.683Z,34.10
2022-11-15T07:08:35.872Z,33.60
2022-11-15T07:11:07.879Z,35.15
2022-11-15T07:13:37.206Z,33.88
2022-11-15T07:16:11.174Z,33.25
2022-11-15T07:18:41.480Z,32.78
2022-11-15T07:21:11.854Z,32.75
2022-11-15T07:23:40.340Z,33.67
2022-11-15T07:26:09.226Z,34.00
2022-11-15T07:28:37.144Z,34.90
2022-11-15T07:31:07.171Z,33.00
2022-11-15T07:33:35.322Z,33.65
2022-11-15T07:36:07.498Z,33.38
2022-11-15T07:38:42.198Z,35.47
2022-11-15T07:41:10.618Z,33.03
2022-11-15T07:43:37.709Z,32.38
2022-11-15T07:46:10.356Z,34.25
2022-11-15T07:48:45.324Z,34.78
2022-11-15T07:51:15.425Z,34.40
2022-11-15T07:53:43.940Z,33.63
2022-11-15T07:56:11.866Z,33.28
2022-11-15T07:58:38.936Z,35.60
2022-11-15T08:01:11.232Z,32.17
2022-11-15T08:03:38.827Z,34.88
2022-11-15T08:06:06.531Z,33.60
2022-11-15T08:08:33.604Z,34.88
2022-11-15T08:11:01.004Z,32.90
2022-11-15T08:13:28.486Z,36.40
2022-11-15T08:16:03.962Z,36.00
2022-11-15T08:18:31.058Z,40.50
2022-11-15T08:21:02.636Z,34.67
2022-11-15T08:23:30.215Z,32.92
2022-11-15T08:26:05.758Z,32.95
2022-11-15T08:28:33.691Z,33.92
2022-11-15T08:31:00.764Z,33.55
2022-11-15T08:33:32.310Z,35.95
2022-11-15T08:36:01.586Z,32.35
2022-11-15T08:38:32.465Z,30.92
2022-11-15T08:41:07.204Z,32.10
2022-11-15T08:43:34.992Z,32.33
2022-11-15T08:46:02.218Z,31.90
2022-11-15T08:48:30.599Z,32.13
2022-11-15T08:50:58.276Z,32.15
2022-11-15T08:53:25.432Z,32.28
2022-11-15T08:55:52.723Z,33.58
2022-11-15T08:58:19.782Z,33.15
2022-11-15T09:00:46.894Z,33.53
2022-11-15T09:03:14.153Z,29.75
2022-11-15T09:05:41.269Z,31.52
2022-11-15T09:08:25.531Z,33.28
2022-11-15T09:10:56.031Z,31.52
2022-11-15T09:13:23.215Z,32.05
2022-11-15T09:15:50.304Z,32.55
2022-11-15T09:18:17.357Z,33.00
2022-11-15T09:20:44.399Z,33.72
2022-11-15T09:23:11.539Z,31.27
2022-11-15T09:25:38.595Z,34.72
2022-11-15T09:28:08.830Z,32.97
2022-11-15T09:30:36.041Z,33.55
2022-11-15T09:33:13.854Z,32.00
2022-11-15T09:35:42.039Z,32.17
2022-11-15T09:38:09.463Z,33.58
2022-11-15T09:40:38.989Z,33.45
2022-11-15T09:43:51.453Z,35.05
2022-11-15T09:46:29.798Z,32.78
2022-11-15T09:49:02.707Z,30.60
2022-11-15T09:51:48.465Z,34.00
2022-11-15T09:54:52.865Z,33.28
2022-11-15T09:57:34.223Z,35.55
2022-11-15T10:00:48.345Z,31.10
2022-11-15T10:03:31.851Z,32.95
2022-11-15T10:06:05.212Z,35.05
2022-11-15T10:09:02.951Z,35.58
2022-11-15T10:11:37.677Z,34.10
2022-11-15T10:14:28.289Z,34.17
2022-11-15T10:17:17.232Z,33.88
2022-11-15T10:20:07.902Z,32.20
2022-11-15T10:23:01.197Z,34.88
2022-11-15T10:25:36.450Z,34.72
2022-11-15T10:28:13.244Z,34.30
2022-11-15T10:30:51.652Z,33.95
2022-11-15T10:33:30.616Z,35.20
2022-11-15T10:36:19.052Z,36.25
2022-11-15T10:38:51.877Z,34.45
2022-11-15T10:41:27.815Z,33.33
2022-11-15T10:44:30.417Z,33.17
2022-11-15T10:46:57.683Z,33.10
2022-11-15T10:49:31.043Z,35.35
2022-11-15T10:52:13.070Z,33.70
2022-11-15T10:55:00.519Z,35.35
2022-11-15T10:57:35.159Z,32.17
2022-11-15T11:00:27.783Z,34.45
2022-11-15T11:02:57.865Z,33.47
2022-11-15T11:05:42.562Z,31.85
2022-11-15T11:08:13.215Z,33.03
2022-11-15T11:11:01.535Z,30.52
2022-11-15T11:13:40.385Z,32.35
2022-11-15T11:16:30.680Z,35.40
2022-11-15T11:19:58.724Z,33.00
2022-11-15T11:22:49.638Z,32.42
2022-11-15T11:25:48.656Z,31.88
2022-11-15T11:28:38.715Z,32.42
2022-11-15T11:31:05.668Z,32.63
2022-11-15T11:34:10.884Z,33.75
2022-11-15T11:36:55.135Z,35.33
2022-11-15T11:40:10.877Z,36.08
2022-11-15T11:43:15.725Z,35.28
2022-11-15T11:46:13.528Z,36.42
2022-11-15T11:48:53.113Z,34.30
2022-11-15T11:51:32.129Z,37.03
2022-11-15T11:54:11.030Z,40.72
2022-11-15T11:56:42.205Z,34.83
2022-11-15T11:59:17.958Z,37.60
2022-11-15T12:01:46.403Z,38.17
2022-11-15T12:04:25.850Z,35.38
2022-11-15T12:07:29.825Z,38.83
2022-11-15T12:10:05.329Z,36.33
2022-11-15T12:13:17.515Z,36.38
2022-11-15T12:15:59.593Z,36.97
2022-11-15T12:18:27.117Z,35.50
2022-11-15T12:21:05.382Z,39.75
2022-11-15T12:23:51.170Z,36.40
2022-11-15T12:26:32.790Z,38.42
2022-11-15T12:29:07.872Z,36.92
2022-11-15T12:31:41.457Z,37.50
2022-11-15T12:34:23.725Z,35.45
2022-11-15T12:36:52.431Z,40.15
2022-11-15T12:39:20.474Z,40.08
2022-11-15T12:41:55.971Z,40.63
2022-11-15T12:44:48.731Z,40.90
2022-11-15T12:47:27.906Z,38.55
2022-11-15T12:49:55.339Z,37.20
2022-11-15T12:52:23.244Z,35.85
2022-11-15T12:54:59.810Z,31.92
2022-11-15T12:57:35.705Z,34.42
2022-11-15T13:00:13.554Z,33.95
2022-11-15T13:02:46.232Z,30.83
2022-11-15T13:05:23.465Z,31.25
2022-11-15T13:07:50.843Z,31.92
2022-11-15T13:10:29.970Z,30.88
2022-11-15T13:13:08.410Z,33.88
2022-11-15T13:15:57.654Z,32.97
2022-11-15T13:18:39.133Z,32.72
2022-11-15T13:21:45.752Z,32.85
2022-11-15T13:24:17.368Z,33.75
2022-11-15T13:26:44.696Z,35.90
2022-11-15T13:29:20.744Z,36.25
2022-11-15T13:31:49.915Z,38.00
2022-11-15T13:34:53.171Z,36.90
2022-11-15T13:37:30.909Z,35.80
2022-11-15T13:40:25.413Z,36.22
2022-11-15T13:42:52.703Z,36.10
2022-11-15T13:45:20.972Z,35.25
2022-11-15T13:47:57.765Z,36.42
2022-11-15T13:50:34.152Z,38.75
2022-11-15T13:53:05.376Z,39.58
2022-11-15T13:55:34.082Z,39.97
2022-11-15T13:58:07.317Z,38.45
2022-11-15T14:00:45.174Z,39.78
2022-11-15T14:03:28.808Z,35.83
2022-11-15T14:06:19.389Z,37.90
2022-11-15T14:09:08.566Z,40.17
2022-11-15T14:11:36.023Z,38.47
2022-11-15T14:14:16.698Z,40.00
2022-11-15T14:17:00.209Z,39.95
2022-11-15T14:19:27.271Z,37.38
2022-11-15T14:22:29.479Z,39.03
2022-11-15T14:25:20.743Z,38.55
2022-11-15T14:28:24.905Z,37.78
2022-11-15T14:30:59.349Z,40.72
2022-11-15T14:33:36.879Z,39.08
2022-11-15T14:36:12.266Z,38.78
2022-11-15T14:38:39.571Z,38.33
2022-11-15T14:41:06.933Z,41.10
2022-11-15T14:43:34.022Z,41.60
2022-11-15T14:46:01.486Z,40.40
2022-11-15T14:48:28.650Z,41.47
2022-11-15T14:50:55.791Z,41.38
2022-11-15T14:53:23.256Z,42.03
2022-11-15T14:55:55.435Z,45.13
2022-11-15T14:58:25.147Z,47.67
2022-11-15T15:00:52.322Z,54.92
2022-11-15T15:03:19.446Z,52.13
2022-11-15T15:05:46.520Z,46.58
2022-11-15T15:08:13.673Z,45.72
2022-11-15T15:10:45.430Z,46.45
2022-11-15T15:13:20.236Z,46.53
2022-11-15T15:15:48.237Z,45.92
2022-11-15T15:18:16.395Z,45.25
2022-11-15T15:20:46.863Z,45.58
2022-11-15T15:23:20.440Z,45.83
2022-11-15T15:25:50.057Z,44.50
2022-11-15T15:28:17.356Z,45.47
2022-11-15T15:30:44.720Z,43.55
2022-11-15T15:33:11.904Z,47.20
2022-11-15T15:35:39.116Z,44.42
2022-11-15T15:38:06.918Z,46.25
2022-11-15T15:40:34.709Z,46.70
2022-11-15T15:43:02.149Z,46.90
2022-11-15T15:45:30.616Z,45.08
2022-11-15T15:47:57.976Z,47.70
2022-11-15T15:50:31.284Z,46.53
2022-11-15T15:53:01.006Z,46.78
2022-11-15T15:55:28.999Z,47.10
2022-11-15T15:57:56.605Z,45.88
2022-11-15T16:00:26.407Z,44.45
2022-11-15T16:02:54.670Z,40.85
2022-11-15T16:05:23.205Z,39.92
2022-11-15T16:07:50.613Z,42.88
2022-11-15T16:10:40.164Z,40.65
2022-11-15T16:13:07.616Z,40.75
2022-11-15T16:15:36.062Z,40.50
2022-11-15T16:18:04.763Z,38.40
2022-11-15T16:20:43.782Z,33.22
2022-11-15T16:23:16.521Z,31.48
2022-11-15T16:25:54.415Z,32.33
2022-11-15T16:28:31.554Z,30.63
2022-11-15T16:31:12.791Z,31.65
2022-11-15T16:33:41.366Z,31.38
2022-11-15T16:36:29.807Z,31.17
2022-11-15T16:38:59.361Z,32.05
2022-11-15T16:41:27.689Z,31.95
2022-11-15T16:43:55.089Z,32.08
2022-11-15T16:46:27.714Z,32.38
2022-11-15T16:48:55.365Z,30.70
2022-11-15T16:51:23.385Z,32.03
2022-11-15T16:53:51.066Z,31.67
2022-11-15T16:56:25.877Z,30.73
2022-11-15T16:58:58.798Z,31.52
2022-11-15T17:01:29.865Z,30.67
2022-11-15T17:03:58.295Z,31.27
2022-11-15T17:06:27.112Z,31.83
2022-11-15T17:08:56.075Z,32.70
2022-11-15T17:11:24.207Z,30.05
2022-11-15T17:13:51.623Z,30.25
2022-11-15T17:16:19.589Z,29.60
2022-11-15T17:18:52.005Z,30.15
2022-11-15T17:21:22.291Z,31.77
2022-11-15T17:23:49.996Z,30.02
2022-11-15T17:26:29.676Z,29.50
2022-11-15T17:29:01.197Z,31.10
2022-11-15T17:31:31.176Z,33.90
2022-11-15T17:33:58.864Z,33.28
2022-11-15T17:36:26.439Z,31.40
2022-11-15T17:38:58.223Z,34.13
2022-11-15T17:41:28.285Z,33.45
2022-11-15T17:44:00.634Z,32.97
2022-11-15T17:46:29.354Z,35.83
2022-11-15T17:48:58.274Z,32.42
2022-11-15T17:51:26.152Z,32.70
2022-11-15T17:53:53.636Z,32.22
2022-11-15T17:56:24.247Z,32.40
2022-11-15T17:58:59.107Z,33.30
2022-11-15T18:01:33.126Z,34.60
2022-11-15T18:04:03.384Z,33.78
2022-11-15T18:06:35.015Z,34.80
2022-11-15T18:09:05.407Z,33.03
2022-11-15T18:11:41.694Z,34.40
2022-11-15T18:14:15.589Z,32.80
2022-11-15T18:16:43.428Z,33.55
2022-11-15T18:19:14.795Z,32.95
2022-11-15T18:21:57.469Z,32.88
2022-11-15T18:24:35.158Z,34.08
2022-11-15T18:27:04.876Z,32.35
2022-11-15T18:29:35.084Z,34.45
2022-11-15T18:32:11.875Z,35.58
2022-11-15T18:34:39.908Z,34.45
2022-11-15T18:37:08.302Z,34.58
2022-11-15T18:39:36.380Z,34.30
2022-11-15T18:42:04.422Z,34.88
2022-11-15T18:44:32.324Z,34.97
2022-11-15T18:46:59.667Z,32.15
2022-11-15T18:49:27.003Z,34.38
2022-11-15T18:51:54.629Z,30.10
2022-11-15T18:54:24.487Z,29.20
2022-11-15T18:56:55.449Z,26.30
2022-11-15T18:59:23.066Z,25.20
2022-11-15T19:01:52.710Z,24.75
2022-11-15T19:04:22.359Z,22.27
2022-11-15T19:06:51.328Z,20.90
2022-11-15T19:09:19.735Z,20.50
2022-11-15T19:11:51.604Z,20.58
2022-11-15T19:14:24.561Z,20.63
2022-11-15T19:16:53.239Z,18.58
2022-11-15T19:19:24.998Z,19.67
2022-11-15T19:21:53.990Z,20.35
2022-11-15T19:24:22.723Z,20.17
2022-11-15T19:26:51.829Z,18.42
2022-11-15T19:29:19.534Z,18.58
2022-11-15T19:31:48.974Z,20.08
2022-11-15T19:34:16.672Z,20.08
2022-11-15T19:36:45.631Z,20.00
2022-11-15T19:39:15.912Z,20.02
2022-11-15T19:41:44.972Z,18.65
2022-11-15T19:44:14.455Z,19.20
2022-11-15T19:46:42.271Z,19.05
2022-11-15T19:49:11.386Z,20.70
2022-11-15T19:51:42.588Z,25.98
2022-11-15T19:54:10.772Z,35.15
2022-11-15T19:56:40.405Z,35.80
2022-11-15T19:59:09.328Z,32.13
2022-11-15T20:01:39.608Z,27.17
2022-11-15T20:04:10.409Z,21.77
2022-11-15T20:06:42.509Z,20.50
2022-11-15T20:09:15.917Z,19.98
2022-11-15T20:11:44.033Z,17.75
2022-11-15T20:14:13.451Z,18.20
2022-11-15T20:16:43.642Z,19.17
2022-11-15T20:19:12.807Z,18.15
2022-11-15T20:21:42.638Z,20.20
2022-11-15T20:24:10.358Z,21.15
2022-11-15T20:26:38.955Z,21.95
2022-11-15T20:29:08.522Z,23.02
2022-11-15T20:31:36.486Z,22.67
2022-11-15T20:34:04.591Z,24.70
2022-11-15T20:36:32.163Z,23.95
2022-11-15T20:39:00.835Z,24.25
2022-11-15T20:41:29.116Z,23.63
2022-11-15T20:43:56.975Z,23.98
2022-11-15T20:46:24.497Z,23.83
2022-11-15T20:48:52.134Z,24.27
2022-11-15T20:51:20.529Z,24.60
2022-11-15T20:53:48.957Z,23.50
2022-11-15T20:56:21.197Z,24.38
2022-11-15T20:58:53.409Z,24.52
2022-11-15T21:01:25.011Z,25.95
2022-11-15T21:03:55.187Z,26.85
2022-11-15T21:06:24.966Z,25.40
2022-11-15T21:09:12.944Z,25.20
2022-11-15T21:11:59.380Z,25.75
2022-11-15T21:14:30.027Z,26.15
2022-11-15T21:16:57.461Z,25.55
2022-11-15T21:19:31.137Z,25.65
2022-11-15T21:22:02.201Z,23.10
2022-11-15T21:24:29.997Z,24.75
2022-11-15T21:26:57.936Z,24.65
2022-11-15T21:29:25.460Z,24.80
2022-11-15T21:31:53.588Z,25.27
2022-11-15T21:34:21.152Z,23.60
2022-11-15T21:36:48.210Z,25.48
2022-11-15T21:39:15.290Z,23.70
2022-11-15T21:41:42.377Z,25.17
2022-11-15T21:44:09.414Z,24.02
2022-11-15T21:46:37.356Z,22.90
2022-11-15T21:49:05.684Z,23.15
2022-11-15T21:51:33.320Z,24.95
2022-11-15T21:54:00.780Z,24.50
2022-11-15T21:56:29.262Z,25.00
2022-11-15T21:58:56.900Z,24.58
2022-11-15T22:01:44.759Z,24.67
2022-11-15T22:04:12.443Z,23.58
2022-11-15T22:06:39.780Z,23.15
2022-11-15T22:09:07.545Z,24.33
2022-11-15T22:11:35.164Z,25.13
2022-11-15T22:14:05.021Z,24.83
2022-11-15T22:16:33.019Z,26.05
2022-11-15T22:19:00.422Z,24.30
2022-11-15T22:21:27.513Z,24.27
2022-11-15T22:23:54.592Z,23.33
2022-11-15T22:26:23.854Z,23.95
2022-11-15T22:28:51.622Z,25.30
2022-11-15T22:31:19.277Z,24.15
2022-11-15T22:33:46.845Z,26.20
2022-11-15T22:36:14.205Z,22.73
2022-11-15T22:38:41.411Z,26.05
2022-11-15T22:41:08.903Z,23.60
2022-11-15T22:43:36.011Z,24.23
2022-11-15T22:46:05.140Z,24.67
2022-11-15T22:48:36.708Z,24.95
2022-11-15T22:51:05.694Z,23.02
2022-11-15T22:53:32.776Z,25.30
2022-11-15T22:56:03.001Z,24.20
2022-11-15T22:58:32.539Z,24.90
2022-11-15T23:01:02.552Z,28.25
2022-11-15T23:03:31.043Z,25.00
2022-11-15T23:06:07.219Z,25.05
2022-11-15T23:08:34.645Z,25.55
2022-11-15T23:11:22.492Z,26.90
2022-11-15T23:13:53.459Z,26.08
2022-11-15T23:16:25.613Z,26.02
2022-11-15T23:19:03.347Z,26.52
2022-11-15T23:21:58.028Z,30.95
2022-11-15T23:24:25.904Z,27.13
2022-11-15T23:27:02.446Z,26.75
2022-11-15T23:29:30.449Z,28.17
2022-11-15T23:32:16.148Z,28.20
2022-11-15T23:34:45.758Z,26.75
2022-11-15T23:37:15.824Z,27.45
2022-11-15T23:39:42.918Z,27.67
2022-11-15T23:42:19.731Z,27.77
2022-11-15T23:44:50.025Z,26.88
2022-11-15T23:47:20.087Z,28.77
2022-11-15T23:49:47.309Z,27.88
2022-11-15T23:52:15.687Z,29.13
2022-11-15T23:54:43.372Z,27.30
2022-11-15T23:57:12.466Z,29.15
2022-11-15T23:59:43.509Z,27.58
